In Rescue
 
Open Full Screen Window  High Contrast Mode
September 18, 2020 9:47 PM EDT
Weather Information
Wind Direction
  ---
Wind Speed
  00 kt (0 mph)
Wind Gust
  00 kt (0 mph)
Altimeter
30.37 in
Visibility
10 SM
Temperature
03° C
37° F
Dewpoint
-01° C
30° F
Humidity
75%
1hr Rain Fall
00.00 in.
24hr Rain Fall
00.00 in.
Sky Condition
Clear
VFR

METAR KISQ 190147Z AUTO 00000KT 10SM CLR 03/M01 A3037 RMK AO2 T00331007

FAA Disclaimer: The data displayed is for advisory purposes only and is not to be used for flight planning or operations.